Time;durP1;ratioP1;P1;durP2;ratioP2;P2;SDS_P1;SDS_P2;PMS_P1;PMS_P2;Temp;Humidity;BMP_temperature;BMP_pressure;BME280_temperature;BME280_humidity;BME280_pressure;Samples;Min_cycle;Max_cycle;Signal;HPM_P1;HPM_P2
2023/05/31 00:00:06;;;;;;;5.32;3.40;;;15.80;99.90;;;;;;6063948;23;20455;-78
2023/05/31 00:02:32;;;;;;;5.32;4.00;;;15.90;99.90;;;;;;6039227;23;20387;-78
2023/05/31 00:04:59;;;;;;;6.28;3.88;;;15.90;99.90;;;;;;6038718;23;20429;-81
2023/05/31 00:07:26;;;;;;;5.47;3.67;;;15.90;99.90;;;;;;6061333;23;20383;-80
2023/05/31 00:09:53;;;;;;;4.70;3.03;;;16.00;99.90;;;;;;6064938;23;20391;-81
2023/05/31 00:12:20;;;;;;;5.28;2.70;;;16.00;99.90;;;;;;6065815;23;20386;-80
2023/05/31 00:14:48;;;;;;;4.53;2.63;;;16.00;99.90;;;;;;6064926;23;20459;-80
2023/05/31 00:17:14;;;;;;;4.85;2.85;;;16.00;99.90;;;;;;6062487;23;20402;-81
2023/05/31 00:20:02;;;;;;;4.25;2.28;;;16.00;99.90;;;;;;6024594;23;20463;-80
2023/05/31 00:22:30;;;;;;;3.00;1.50;;;15.90;99.90;;;;;;6063939;23;20467;-81
2023/05/31 00:24:56;;;;;;;3.25;1.60;;;15.80;99.90;;;;;;6040522;23;20391;-79
2023/05/31 00:27:23;;;;;;;3.17;1.77;;;15.80;99.90;;;;;;6039061;23;20516;-79
2023/05/31 00:29:50;;;;;;;1.92;1.40;;;15.80;99.90;;;;;;6063619;23;20394;-80
2023/05/31 00:32:17;;;;;;;5.32;1.65;;;15.70;99.90;;;;;;6061798;23;20423;-79
2023/05/31 00:34:44;;;;;;;2.35;1.73;;;15.70;99.90;;;;;;6063491;23;20436;-79
2023/05/31 00:37:11;;;;;;;2.95;1.85;;;15.70;99.90;;;;;;6066193;23;20394;-79
2023/05/31 00:39:38;;;;;;;3.30;1.60;;;15.60;99.90;;;;;;6067340;23;20383;-79
2023/05/31 00:42:05;;;;;;;3.20;1.92;;;15.70;99.90;;;;;;6068109;23;20391;-79
2023/05/31 00:44:32;;;;;;;2.40;1.73;;;15.70;99.90;;;;;;6042361;23;20394;-79
2023/05/31 00:46:59;;;;;;;2.33;1.40;;;15.60;99.90;;;;;;6064885;23;20379;-80
2023/05/31 00:49:27;;;;;;;3.15;1.83;;;15.60;99.90;;;;;;6063568;23;20379;-80
2023/05/31 00:51:54;;;;;;;3.80;1.23;;;15.60;99.90;;;;;;6063957;23;20395;-80
2023/05/31 00:54:22;;;;;;;1.65;1.48;;;15.60;99.90;;;;;;6038184;23;20384;-80
2023/05/31 00:56:49;;;;;;;2.20;1.40;;;15.60;99.90;;;;;;6067248;23;20375;-80
2023/05/31 00:59:16;;;;;;;2.35;1.50;;;15.60;99.90;;;;;;6064387;23;20386;-80
2023/05/31 01:01:44;;;;;;;2.22;1.20;;;15.60;99.90;;;;;;6063782;23;20842;-81
2023/05/31 01:15:23;;;;;;;2.40;1.10;;;15.50;99.90;;;;;;6090478;23;20396;-82
2023/05/31 01:18:09;;;;;;;3.17;1.30;;;15.50;99.90;;;;;;6066573;23;20385;-84
2023/05/31 01:20:39;;;;;;;1.70;1.30;;;15.50;99.90;;;;;;6066809;23;20440;-82
2023/05/31 01:23:25;;;;;;;1.10;0.88;;;15.50;99.90;;;;;;6066201;23;20858;-84
2023/05/31 01:26:17;;;;;;;2.00;1.00;;;15.50;99.90;;;;;;6067084;23;20381;-85
2023/05/31 01:28:51;;;;;;;1.38;0.90;;;15.50;99.90;;;;;;6066387;23;20397;-84
2023/05/31 01:31:21;;;;;;;2.53;0.82;;;15.50;99.90;;;;;;6065738;23;20381;-85
2023/05/31 01:33:53;;;;;;;1.40;1.10;;;15.50;99.90;;;;;;6066228;23;20448;-86
2023/05/31 01:36:20;;;;;;;2.53;1.02;;;15.50;99.90;;;;;;6067761;23;20397;-86
2023/05/31 01:38:47;;;;;;;1.37;1.00;;;15.50;99.90;;;;;;6062375;23;20388;-84
2023/05/31 01:41:16;;;;;;;1.58;0.98;;;15.60;99.90;;;;;;6066271;23;20384;-85
2023/05/31 01:43:44;;;;;;;2.00;1.20;;;15.60;99.90;;;;;;6052824;23;20374;-86
2023/05/31 01:46:18;;;;;;;2.80;1.10;;;15.60;99.90;;;;;;6066769;23;20748;-85
2023/05/31 01:48:46;;;;;;;1.55;1.05;;;15.60;99.90;;;;;;6066012;23;20863;-87
2023/05/31 01:51:15;;;;;;;2.13;1.13;;;15.60;99.90;;;;;;6043079;23;20373;-83
2023/05/31 01:53:45;;;;;;;2.37;1.30;;;15.60;99.90;;;;;;6065461;23;20767;-84
2023/05/31 01:56:15;;;;;;;2.67;1.20;;;15.60;99.90;;;;;;6067143;23;20413;-84
2023/05/31 01:58:47;;;;;;;1.50;1.10;;;15.50;99.90;;;;;;6058116;23;20382;-84
2023/05/31 02:01:19;;;;;;;1.92;1.20;;;15.50;99.90;;;;;;6066377;23;20385;-84
2023/05/31 02:03:51;;;;;;;1.60;1.17;;;15.40;99.90;;;;;;6066053;23;20413;-83
2023/05/31 02:06:18;;;;;;;1.42;1.05;;;15.40;99.90;;;;;;6067772;23;20385;-82
2023/05/31 02:08:45;;;;;;;1.60;1.07;;;15.40;99.90;;;;;;6065755;23;20377;-83
2023/05/31 02:11:12;;;;;;;1.25;0.93;;;15.40;99.90;;;;;;6066166;23;20390;-82
2023/05/31 02:13:39;;;;;;;1.90;0.90;;;15.30;99.90;;;;;;6065060;23;20722;-81
2023/05/31 02:16:06;;;;;;;1.23;0.90;;;15.30;99.90;;;;;;6065751;23;20381;-81
2023/05/31 02:18:35;;;;;;;1.73;1.00;;;15.30;99.90;;;;;;6065845;23;20484;-79
2023/05/31 02:21:06;;;;;;;1.48;1.10;;;15.40;99.90;;;;;;6063832;23;22428;-81
2023/05/31 02:23:32;;;;;;;1.88;0.88;;;15.40;99.90;;;;;;6065235;23;20445;-80
2023/05/31 02:26:00;;;;;;;1.80;1.10;;;15.40;99.90;;;;;;6065161;23;20388;-80
2023/05/31 02:28:27;;;;;;;1.70;0.90;;;15.30;99.90;;;;;;6065712;23;20383;-81
2023/05/31 02:30:58;;;;;;;2.77;1.00;;;15.40;99.90;;;;;;6065294;23;20862;-81
2023/05/31 02:33:27;;;;;;;1.92;0.80;;;15.30;99.90;;;;;;6065477;23;20381;-80
2023/05/31 02:35:56;;;;;;;1.75;1.00;;;15.30;99.90;;;;;;6064749;23;20719;-81
2023/05/31 02:38:24;;;;;;;0.98;0.75;;;15.30;99.90;;;;;;6065818;23;20720;-81
2023/05/31 02:40:51;;;;;;;1.30;0.90;;;15.30;99.90;;;;;;6064726;23;20689;-80
2023/05/31 02:43:18;;;;;;;1.50;0.90;;;15.30;99.90;;;;;;6065664;23;20385;-81
2023/05/31 02:45:45;;;;;;;2.22;1.23;;;15.30;99.90;;;;;;6064058;23;20385;-81
2023/05/31 02:48:12;;;;;;;2.00;1.00;;;15.40;99.90;;;;;;6065495;23;20855;-79
2023/05/31 02:50:40;;;;;;;1.38;0.90;;;15.40;99.90;;;;;;6065599;23;20442;-79
2023/05/31 02:53:06;;;;;;;2.50;0.93;;;15.40;99.90;;;;;;6063774;23;20381;-80
2023/05/31 02:55:33;;;;;;;2.20;1.05;;;15.40;99.90;;;;;;6065018;23;20464;-80
2023/05/31 02:58:01;;;;;;;1.83;1.20;;;15.40;99.90;;;;;;6064575;23;20385;-79
2023/05/31 03:00:28;;;;;;;1.63;1.10;;;15.40;99.90;;;;;;6066354;23;20839;-80
2023/05/31 03:02:55;;;;;;;1.20;0.85;;;15.50;99.90;;;;;;6064972;23;20390;-82
2023/05/31 03:05:23;;;;;;;1.50;0.90;;;15.60;99.90;;;;;;6065543;23;20434;-80
2023/05/31 03:07:50;;;;;;;2.50;1.20;;;15.60;99.90;;;;;;6064871;23;20385;-81
2023/05/31 03:10:17;;;;;;;1.63;1.05;;;15.50;99.90;;;;;;6065754;23;20388;-80
2023/05/31 03:12:44;;;;;;;2.22;1.00;;;15.50;99.90;;;;;;6064936;23;20755;-82
2023/05/31 03:15:12;;;;;;;1.35;0.80;;;15.50;99.90;;;;;;6066719;23;20870;-81
2023/05/31 03:17:39;;;;;;;1.87;0.70;;;15.40;99.90;;;;;;6067587;23;20377;-79
2023/05/31 03:20:10;;;;;;;1.70;0.93;;;15.40;99.90;;;;;;6066487;23;20381;-80
2023/05/31 03:22:37;;;;;;;1.63;1.00;;;15.40;99.90;;;;;;6067816;23;20413;-81
2023/05/31 03:25:05;;;;;;;2.10;1.00;;;15.40;99.90;;;;;;6066602;23;20399;-83
2023/05/31 03:27:32;;;;;;;1.45;0.98;;;15.40;99.90;;;;;;6067401;23;20377;-81
2023/05/31 03:30:00;;;;;;;2.40;1.00;;;15.40;99.90;;;;;;6066701;23;20377;-81
2023/05/31 03:32:27;;;;;;;1.40;1.00;;;15.40;99.90;;;;;;6066979;23;20563;-81
2023/05/31 03:34:54;;;;;;;3.47;1.17;;;15.40;99.90;;;;;;6066724;23;20385;-82
2023/05/31 03:37:21;;;;;;;2.97;1.08;;;15.40;99.90;;;;;;6092330;23;20369;-80
2023/05/31 03:39:48;;;;;;;1.90;1.05;;;15.40;99.90;;;;;;6066627;23;20381;-81
2023/05/31 03:42:15;;;;;;;1.15;0.82;;;15.40;99.90;;;;;;6066692;23;20378;-81
2023/05/31 03:44:43;;;;;;;1.88;1.05;;;15.40;99.90;;;;;;6067491;23;20373;-82
2023/05/31 03:47:11;;;;;;;1.40;0.80;;;15.40;99.90;;;;;;6066757;23;20400;-80
2023/05/31 03:49:38;;;;;;;1.73;1.10;;;15.30;99.90;;;;;;6067345;23;20404;-81
2023/05/31 03:52:05;;;;;;;1.75;1.00;;;15.30;99.90;;;;;;6065652;23;20378;-81
2023/05/31 03:54:32;;;;;;;3.17;1.10;;;15.30;99.90;;;;;;6067325;23;20409;-80
2023/05/31 03:57:00;;;;;;;2.40;1.30;;;15.20;99.90;;;;;;6066354;23;20914;-81
2023/05/31 03:59:26;;;;;;;1.83;1.10;;;15.20;99.90;;;;;;6067114;23;20373;-81
2023/05/31 04:01:54;;;;;;;2.83;1.17;;;15.20;99.90;;;;;;6066170;23;20377;-80
2023/05/31 04:04:21;;;;;;;3.28;1.48;;;15.20;99.90;;;;;;6067214;23;20393;-80
2023/05/31 04:06:48;;;;;;;3.63;1.23;;;15.10;99.90;;;;;;6066150;23;20443;-81
2023/05/31 04:09:15;;;;;;;1.67;1.20;;;15.10;99.90;;;;;;6066956;23;20483;-81
2023/05/31 04:11:42;;;;;;;2.85;1.20;;;15.10;99.90;;;;;;6067266;23;20700;-80
2023/05/31 04:14:09;;;;;;;1.40;1.00;;;15.10;99.90;;;;;;6065895;23;20720;-80
2023/05/31 04:16:36;;;;;;;1.90;1.15;;;15.10;99.90;;;;;;6066974;23;20510;-79
2023/05/31 04:19:03;;;;;;;2.35;1.40;;;15.10;99.90;;;;;;6065854;23;20389;-83
2023/05/31 04:21:31;;;;;;;2.80;1.58;;;15.10;99.90;;;;;;6067202;23;20382;-80
2023/05/31 04:23:58;;;;;;;1.70;1.30;;;15.10;99.90;;;;;;6091208;23;20772;-81
2023/05/31 04:26:26;;;;;;;1.33;1.00;;;15.10;99.90;;;;;;6066307;23;20381;-82
2023/05/31 04:28:54;;;;;;;2.88;1.27;;;15.10;99.90;;;;;;6066359;23;20385;-81
2023/05/31 04:31:24;;;;;;;2.17;1.10;;;15.20;99.90;;;;;;6066434;23;20373;-81
2023/05/31 04:34:05;;;;;;;1.95;1.15;;;15.20;99.90;;;;;;6069051;23;20755;-80
2023/05/31 04:36:32;;;;;;;1.42;1.10;;;15.10;99.90;;;;;;6066386;23;20390;-80
2023/05/31 04:38:59;;;;;;;1.40;0.90;;;15.10;99.90;;;;;;6065956;23;20385;-80
2023/05/31 04:41:26;;;;;;;2.03;1.02;;;15.20;99.90;;;;;;6066793;23;20385;-80
2023/05/31 04:43:53;;;;;;;1.40;0.98;;;15.20;99.90;;;;;;6066179;23;20385;-80
2023/05/31 04:46:22;;;;;;;2.22;1.40;;;15.20;99.90;;;;;;6091397;23;20415;-80
2023/05/31 04:48:49;;;;;;;2.88;1.10;;;15.10;99.90;;;;;;6066680;23;20448;-80
2023/05/31 04:51:17;;;;;;;1.45;1.17;;;15.20;99.90;;;;;;6065896;23;20369;-80
2023/05/31 04:53:45;;;;;;;2.00;1.20;;;15.10;99.90;;;;;;6066410;23;20466;-81
2023/05/31 04:56:12;;;;;;;1.67;0.90;;;15.10;99.90;;;;;;6065409;23;20715;-81
2023/05/31 04:58:40;;;;;;;1.70;1.20;;;15.10;99.90;;;;;;6066653;23;20419;-81
2023/05/31 05:01:08;;;;;;;2.97;1.30;;;15.20;99.90;;;;;;6091691;23;20638;-82
2023/05/31 05:03:35;;;;;;;2.25;1.38;;;15.20;99.90;;;;;;6092404;23;20384;-79
2023/05/31 05:06:18;;;;;;;3.00;1.13;;;15.20;99.90;;;;;;6066741;23;20385;-84
2023/05/31 05:08:46;;;;;;;1.48;1.10;;;15.10;99.90;;;;;;6066827;23;20385;-80
2023/05/31 05:11:13;;;;;;;2.05;1.20;;;15.10;99.90;;;;;;6065452;23;20395;-82
2023/05/31 05:13:41;;;;;;;2.00;1.17;;;15.10;99.90;;;;;;6067101;23;20437;-80
2023/05/31 05:16:08;;;;;;;2.40;1.00;;;15.10;99.90;;;;;;6090646;23;20396;-79
2023/05/31 05:18:36;;;;;;;2.60;1.23;;;15.10;99.90;;;;;;6066304;23;20412;-82
2023/05/31 05:21:03;;;;;;;2.10;1.17;;;15.00;99.90;;;;;;6091264;23;20386;-82
2023/05/31 05:23:32;;;;;;;2.58;1.00;;;15.00;99.90;;;;;;6066767;23;20381;-81
2023/05/31 05:26:00;;;;;;;2.80;1.30;;;15.10;99.90;;;;;;6066049;23;20378;-82
2023/05/31 05:28:28;;;;;;;2.10;1.20;;;15.00;99.90;;;;;;6066343;23;20378;-84
2023/05/31 05:30:55;;;;;;;1.60;1.20;;;15.10;99.90;;;;;;6065878;23;20469;-83
2023/05/31 05:33:22;;;;;;;1.70;1.10;;;15.00;99.90;;;;;;6066618;23;20682;-81
2023/05/31 05:35:49;;;;;;;1.87;1.20;;;15.00;99.90;;;;;;6066753;23;20412;-81
2023/05/31 05:38:16;;;;;;;1.97;1.27;;;14.90;99.90;;;;;;6066924;23;20389;-82
2023/05/31 05:40:43;;;;;;;2.97;2.05;;;14.90;99.90;;;;;;6069118;23;20711;-82
2023/05/31 05:43:10;;;;;;;3.22;2.35;;;14.90;99.90;;;;;;6067898;23;20397;-81
2023/05/31 05:45:37;;;;;;;3.55;2.70;;;14.90;99.90;;;;;;6093633;23;20388;-84
2023/05/31 05:48:04;;;;;;;4.03;3.63;;;14.90;99.90;;;;;;6071490;23;20385;-82
2023/05/31 05:50:32;;;;;;;6.65;4.38;;;14.90;99.90;;;;;;6067483;23;20440;-83
2023/05/31 05:52:58;;;;;;;5.60;4.70;;;15.00;99.90;;;;;;6069300;23;20385;-83
2023/05/31 05:55:25;;;;;;;6.30;4.60;;;15.00;99.90;;;;;;6076781;23;20393;-83
2023/05/31 05:57:52;;;;;;;7.00;5.17;;;15.10;99.90;;;;;;6078311;23;20386;-84
2023/05/31 06:00:20;;;;;;;6.90;5.07;;;15.20;99.90;;;;;;6071526;23;20382;-83
2023/05/31 06:02:47;;;;;;;7.85;5.38;;;15.20;99.90;;;;;;6080497;23;20377;-84
2023/05/31 06:05:14;;;;;;;7.00;4.50;;;15.30;99.90;;;;;;6073254;23;20388;-83
2023/05/31 06:07:42;;;;;;;6.43;4.05;;;15.30;99.90;;;;;;6070132;23;20378;-83
2023/05/31 06:10:09;;;;;;;5.47;3.28;;;15.30;99.90;;;;;;6065552;23;20387;-84
2023/05/31 06:12:36;;;;;;;3.88;1.98;;;15.30;99.90;;;;;;6066770;23;20385;-84
2023/05/31 06:15:03;;;;;;;2.17;1.40;;;15.20;99.90;;;;;;6065161;23;20377;-84
2023/05/31 06:17:30;;;;;;;2.10;1.48;;;15.20;99.90;;;;;;6065659;23;20442;-85
2023/05/31 06:19:57;;;;;;;2.47;1.35;;;15.20;99.90;;;;;;6065876;23;20768;-84
2023/05/31 06:22:24;;;;;;;2.40;1.25;;;15.20;99.90;;;;;;6065687;23;20381;-84
2023/05/31 06:24:51;;;;;;;2.17;1.40;;;15.20;99.90;;;;;;6066038;23;20711;-84
2023/05/31 06:27:18;;;;;;;2.28;1.25;;;15.20;99.90;;;;;;6065499;23;20385;-84
2023/05/31 06:29:46;;;;;;;2.72;1.50;;;15.20;99.90;;;;;;6066743;23;20397;-84
2023/05/31 06:32:13;;;;;;;3.00;1.42;;;15.20;99.90;;;;;;6065479;23;20381;-85
2023/05/31 06:34:40;;;;;;;2.45;1.70;;;15.30;99.90;;;;;;6065968;23;20389;-84
2023/05/31 06:37:08;;;;;;;3.55;1.27;;;15.30;99.90;;;;;;6066995;23;20385;-85
2023/05/31 06:39:35;;;;;;;1.73;1.30;;;15.30;99.90;;;;;;6066203;23;20373;-84
2023/05/31 06:42:02;;;;;;;2.75;1.38;;;15.20;99.90;;;;;;6090764;23;20393;-85
2023/05/31 06:44:28;;;;;;;2.50;1.35;;;15.10;99.90;;;;;;6066019;23;20393;-83
2023/05/31 06:46:56;;;;;;;3.10;1.40;;;15.10;99.90;;;;;;6091219;23;20377;-84
2023/05/31 06:49:23;;;;;;;2.05;1.33;;;15.10;99.90;;;;;;6066244;23;20732;-84
2023/05/31 06:51:50;;;;;;;2.85;1.30;;;15.10;99.90;;;;;;6068235;23;20688;-83
2023/05/31 06:54:17;;;;;;;2.15;1.38;;;15.10;99.90;;;;;;6067359;23;20396;-82
2023/05/31 06:56:44;;;;;;;1.73;1.40;;;15.10;99.90;;;;;;6067685;23;20389;-84
2023/05/31 06:59:11;;;;;;;2.00;1.20;;;15.10;99.90;;;;;;6066955;23;20381;-82
2023/05/31 07:01:38;;;;;;;2.95;1.30;;;15.10;99.90;;;;;;6092494;23;20396;-83
2023/05/31 07:04:04;;;;;;;2.60;1.50;;;15.10;99.90;;;;;;6066742;23;20381;-83
2023/05/31 07:06:32;;;;;;;2.05;1.42;;;15.20;99.90;;;;;;6067511;23;20385;-82
2023/05/31 07:08:59;;;;;;;3.10;1.47;;;15.20;99.90;;;;;;6067727;23;20388;-82
2023/05/31 07:11:26;;;;;;;1.47;1.20;;;15.10;99.90;;;;;;6092077;23;20715;-82
2023/05/31 07:13:54;;;;;;;3.47;1.70;;;15.20;99.90;;;;;;6067691;23;20381;-83
2023/05/31 07:16:21;;;;;;;2.45;1.20;;;15.20;99.90;;;;;;6067308;23;20385;-83
2023/05/31 07:18:48;;;;;;;4.70;1.50;;;15.20;99.90;;;;;;6044360;23;20389;-82
2023/05/31 07:21:15;;;;;;;2.20;1.38;;;15.20;99.90;;;;;;6067345;23;20381;-83
2023/05/31 07:23:42;;;;;;;2.00;1.20;;;15.20;99.90;;;;;;6067240;23;20373;-82
2023/05/31 07:26:08;;;;;;;2.42;1.50;;;15.20;99.90;;;;;;6066827;23;20392;-82
2023/05/31 07:28:35;;;;;;;3.28;1.70;;;15.20;99.90;;;;;;6067835;23;20392;-82
2023/05/31 07:31:03;;;;;;;3.08;1.70;;;15.20;99.90;;;;;;6068302;23;20918;-82
2023/05/31 07:33:30;;;;;;;3.30;1.92;;;15.20;99.90;;;;;;6067610;23;21476;-83
2023/05/31 07:36:00;;;;;;;3.03;2.03;;;15.20;99.90;;;;;;6067672;23;20390;-83
2023/05/31 07:38:27;;;;;;;3.20;2.28;;;15.20;99.90;;;;;;6066719;23;20850;-84
2023/05/31 07:40:54;;;;;;;2.92;2.13;;;15.20;99.90;;;;;;6068267;23;20386;-82
2023/05/31 07:43:21;;;;;;;3.30;2.00;;;15.20;99.90;;;;;;6067815;23;20381;-85
2023/05/31 07:45:49;;;;;;;3.30;2.15;;;15.20;99.90;;;;;;6067956;23;20874;-83
2023/05/31 07:48:17;;;;;;;2.10;1.85;;;15.20;99.90;;;;;;6050922;23;20381;-83
2023/05/31 07:50:45;;;;;;;3.30;1.77;;;15.20;99.90;;;;;;6046597;23;20461;-85
2023/05/31 07:53:13;;;;;;;3.88;1.90;;;15.20;99.90;;;;;;6066674;23;20377;-82
2023/05/31 07:55:40;;;;;;;2.60;1.52;;;15.20;99.90;;;;;;6067428;23;20700;-83
2023/05/31 07:58:07;;;;;;;2.75;2.00;;;15.20;99.90;;;;;;6067457;23;20385;-83
2023/05/31 08:00:34;;;;;;;2.88;1.88;;;15.20;99.90;;;;;;6066715;23;20464;-83
2023/05/31 08:03:01;;;;;;;2.80;2.20;;;15.30;99.90;;;;;;6068167;23;20482;-85
2023/05/31 08:05:28;;;;;;;4.25;2.55;;;15.30;99.90;;;;;;6066540;23;20385;-83
2023/05/31 08:07:55;;;;;;;3.65;2.42;;;15.30;99.90;;;;;;6067238;23;20381;-83
2023/05/31 08:10:22;;;;;;;4.63;2.40;;;15.30;99.90;;;;;;6066819;23;20373;-82
2023/05/31 08:12:49;;;;;;;3.53;2.10;;;15.30;99.90;;;;;;6067114;23;20378;-85
2023/05/31 08:15:16;;;;;;;4.28;2.53;;;15.30;99.90;;;;;;6066711;23;20382;-84
2023/05/31 08:17:43;;;;;;;3.15;1.73;;;15.40;99.90;;;;;;6067988;23;20448;-83
2023/05/31 08:20:11;;;;;;;2.33;2.13;;;15.40;99.90;;;;;;6067606;23;20416;-85
2023/05/31 08:22:41;;;;;;;2.30;1.83;;;15.40;99.90;;;;;;6067025;23;20404;-83
2023/05/31 08:25:08;;;;;;;3.57;1.97;;;15.40;99.90;;;;;;6093655;23;20390;-81
2023/05/31 08:27:36;;;;;;;3.00;1.70;;;15.40;99.90;;;;;;6067626;23;20421;-82
2023/05/31 08:30:04;;;;;;;2.22;1.40;;;15.40;99.90;;;;;;6066917;23;20389;-82
2023/05/31 08:32:31;;;;;;;2.28;1.70;;;15.40;99.90;;;;;;6066225;23;20456;-83
2023/05/31 08:34:58;;;;;;;2.10;1.55;;;15.40;99.90;;;;;;6066751;23;20395;-82
2023/05/31 08:37:25;;;;;;;3.00;1.90;;;15.40;99.90;;;;;;6066689;23;20485;-82
2023/05/31 08:39:52;;;;;;;2.38;1.80;;;15.40;99.90;;;;;;6091468;23;20394;-82
2023/05/31 08:42:37;;;;;;;2.47;1.80;;;15.40;99.90;;;;;;6066377;23;20381;-82
2023/05/31 08:45:04;;;;;;;2.70;2.17;;;15.40;99.90;;;;;;6067427;23;20388;-81
2023/05/31 08:47:39;;;;;;;2.03;1.77;;;15.40;99.90;;;;;;6065753;23;20382;-82
2023/05/31 08:50:07;;;;;;;2.10;1.75;;;15.40;99.90;;;;;;6066398;23;20449;-83
2023/05/31 08:52:34;;;;;;;3.40;1.90;;;15.40;99.90;;;;;;6066199;23;20459;-81
2023/05/31 08:55:03;;;;;;;3.28;2.10;;;15.40;99.90;;;;;;6066345;23;20392;-83
2023/05/31 08:57:31;;;;;;;2.60;1.88;;;15.40;99.90;;;;;;6090622;23;20387;-81
2023/05/31 09:00:01;;;;;;;3.42;2.13;;;15.50;99.90;;;;;;6066571;23;20392;-81
2023/05/31 09:02:28;;;;;;;2.30;2.10;;;15.50;99.90;;;;;;6065720;23;20385;-81
2023/05/31 09:04:56;;;;;;;2.78;1.98;;;15.60;99.90;;;;;;6066261;23;20381;-81
2023/05/31 09:07:23;;;;;;;2.80;2.10;;;15.60;99.90;;;;;;6063851;23;20377;-81
2023/05/31 09:09:50;;;;;;;2.20;1.90;;;15.70;99.90;;;;;;6091581;23;20383;-81
2023/05/31 09:12:17;;;;;;;3.10;2.15;;;15.80;99.90;;;;;;6066673;23;20437;-82
2023/05/31 09:14:44;;;;;;;3.05;2.10;;;15.90;99.90;;;;;;6089539;23;20382;-81
2023/05/31 09:17:11;;;;;;;3.10;1.92;;;16.00;99.90;;;;;;6066428;23;20381;-83
2023/05/31 09:19:48;;;;;;;3.33;2.10;;;16.10;99.90;;;;;;6066156;23;20385;-81
2023/05/31 09:22:15;;;;;;;3.80;2.25;;;16.20;99.90;;;;;;6067000;23;20385;-83
2023/05/31 09:24:59;;;;;;;3.17;1.88;;;16.30;99.90;;;;;;6065369;23;20377;-82
2023/05/31 09:27:33;;;;;;;3.13;1.80;;;16.30;99.90;;;;;;6065723;23;20697;-82
2023/05/31 09:30:08;;;;;;;2.97;1.50;;;16.40;99.90;;;;;;6066213;23;20392;-82
2023/05/31 09:32:35;;;;;;;2.40;1.70;;;16.60;99.90;;;;;;6065528;23;20381;-82
2023/05/31 09:35:16;;;;;;;2.25;1.73;;;16.70;99.90;;;;;;6066429;23;20382;-81
2023/05/31 09:37:44;;;;;;;2.40;1.50;;;16.70;99.90;;;;;;6065365;23;20755;-82
2023/05/31 09:40:31;;;;;;;2.13;1.90;;;16.80;99.90;;;;;;6066638;23;20386;-80
2023/05/31 09:42:58;;;;;;;3.40;2.05;;;16.90;99.90;;;;;;6090852;23;20412;-82
2023/05/31 09:45:28;;;;;;;2.45;2.10;;;17.00;99.90;;;;;;6066447;23;20385;-80
2023/05/31 09:47:55;;;;;;;2.58;1.90;;;17.10;99.90;;;;;;6063893;23;20382;-82
2023/05/31 09:50:23;;;;;;;2.85;1.77;;;17.30;99.90;;;;;;6065881;23;20392;-80
2023/05/31 09:52:57;;;;;;;2.33;1.73;;;17.50;99.90;;;;;;6064658;23;20384;-80
2023/05/31 09:55:37;;;;;;;3.40;1.90;;;17.80;99.90;;;;;;6065653;23;20765;-79
2023/05/31 09:58:04;;;;;;;2.22;1.50;;;18.00;99.90;;;;;;6063461;23;20385;-80
2023/05/31 10:00:31;;;;;;;2.60;1.77;;;18.30;99.90;;;;;;6065564;23;20440;-80
2023/05/31 10:02:59;;;;;;;2.33;1.73;;;18.40;99.90;;;;;;6064509;23;20381;-81
2023/05/31 10:05:26;;;;;;;1.90;1.70;;;18.60;99.90;;;;;;6065884;23;20744;-80
2023/05/31 10:07:53;;;;;;;3.53;2.13;;;18.70;99.90;;;;;;6064409;23;20389;-79
2023/05/31 10:10:21;;;;;;;2.28;1.50;;;18.70;99.90;;;;;;6065769;23;20901;-79
2023/05/31 10:12:57;;;;;;;2.58;1.85;;;18.90;99.90;;;;;;6064548;23;20385;-80
2023/05/31 10:15:26;;;;;;;2.25;1.80;;;18.90;99.90;;;;;;6066002;23;20381;-80
2023/05/31 10:18:10;;;;;;;2.58;1.77;;;19.00;99.90;;;;;;6063902;23;20408;-80
2023/05/31 10:21:22;;;;;;;3.27;1.87;;;19.00;99.90;;;;;;6065476;23;20385;-79
2023/05/31 10:24:03;;;;;;;3.55;1.80;;;18.90;99.90;;;;;;6064058;23;20377;-78
2023/05/31 10:26:48;;;;;;;3.17;1.95;;;18.90;99.90;;;;;;6064541;23;20716;-79
2023/05/31 10:29:24;;;;;;;2.10;1.55;;;18.90;99.90;;;;;;6065835;23;20378;-80
2023/05/31 10:31:54;;;;;;;2.60;1.70;;;18.90;99.80;;;;;;6064533;23;20712;-79
2023/05/31 10:34:23;;;;;;;3.55;1.70;;;18.90;99.90;;;;;;6065046;23;20382;-79
2023/05/31 10:36:54;;;;;;;3.28;1.85;;;18.90;99.90;;;;;;6064378;23;20377;-79
2023/05/31 10:39:43;;;;;;;2.63;2.00;;;18.90;99.90;;;;;;6065012;23;20500;-79
2023/05/31 10:42:21;;;;;;;2.72;1.90;;;18.90;99.90;;;;;;6064157;23;20396;-79
2023/05/31 10:45:21;;;;;;;2.93;1.80;;;19.00;99.90;;;;;;6064520;23;20711;-78
2023/05/31 10:48:13;;;;;;;3.05;1.70;;;19.10;99.90;;;;;;6062220;23;20477;-79
2023/05/31 10:50:54;;;;;;;3.28;2.08;;;19.20;99.90;;;;;;6065712;23;20440;-79
2023/05/31 10:53:21;;;;;;;2.95;1.73;;;19.20;99.90;;;;;;6064596;23;20373;-79
2023/05/31 10:55:48;;;;;;;2.50;1.60;;;19.30;99.90;;;;;;6065558;23;20381;-79
2023/05/31 10:58:39;;;;;;;2.17;1.60;;;19.40;99.90;;;;;;6089452;23;20393;-79
2023/05/31 11:01:13;;;;;;;1.70;1.60;;;19.50;99.90;;;;;;6064369;23;20382;-79
2023/05/31 11:03:50;;;;;;;2.87;1.70;;;19.50;99.90;;;;;;6064907;23;20422;-79
2023/05/31 11:06:24;;;;;;;2.00;1.63;;;19.60;99.90;;;;;;6064376;23;20404;-79
2023/05/31 11:09:10;;;;;;;2.80;1.65;;;19.70;99.90;;;;;;6065407;23;20377;-79
2023/05/31 11:11:39;;;;;;;3.63;2.00;;;19.80;99.90;;;;;;6064083;23;20386;-78
2023/05/31 11:14:26;;;;;;;2.22;1.60;;;19.90;99.90;;;;;;6089876;23;20389;-79
2023/05/31 11:16:53;;;;;;;2.20;1.35;;;20.00;98.90;;;;;;6063816;23;20476;-79
2023/05/31 11:19:43;;;;;;;1.60;1.30;;;20.10;98.10;;;;;;6064671;23;20415;-79
2023/05/31 11:22:15;;;;;;;1.90;1.27;;;20.20;93.50;;;;;;6063436;23;20420;-79
2023/05/31 11:24:52;;;;;;;2.75;1.10;;;20.50;94.70;;;;;;6064349;23;20772;-78
2023/05/31 11:27:21;;;;;;;3.20;1.55;;;20.80;94.20;;;;;;6064099;23;20389;-78
2023/05/31 11:29:51;;;;;;;1.50;1.20;;;21.20;93.30;;;;;;6063413;23;20389;-79
2023/05/31 11:32:39;;;;;;;2.33;1.30;;;21.70;91.20;;;;;;6063264;23;20442;-79
2023/05/31 11:35:15;;;;;;;1.65;1.02;;;21.90;80.90;;;;;;6063506;23;20468;-79
2023/05/31 11:37:43;;;;;;;1.92;1.10;;;21.90;78.30;;;;;;6065578;23;20472;-79
2023/05/31 11:40:12;;;;;;;1.10;1.00;;;22.00;81.90;;;;;;6063955;23;20870;-78
2023/05/31 11:42:44;;;;;;;1.40;1.00;;;22.10;85.10;;;;;;6089836;23;20385;-79
2023/05/31 11:45:13;;;;;;;1.50;0.90;;;22.10;80.40;;;;;;6064101;23;20870;-78
2023/05/31 11:47:56;;;;;;;1.45;1.02;;;22.30;77.30;;;;;;6065113;23;20751;-78
2023/05/31 11:50:28;;;;;;;1.58;1.00;;;22.40;76.00;;;;;;6065706;23;20433;-78
2023/05/31 11:52:58;;;;;;;1.83;1.00;;;22.70;75.30;;;;;;6066013;23;20381;-77
2023/05/31 11:55:32;;;;;;;2.03;1.35;;;22.90;73.20;;;;;;6090688;23;20377;-79
2023/05/31 11:58:00;;;;;;;1.40;1.20;;;23.30;70.30;;;;;;6066117;23;20448;-78
2023/05/31 12:00:28;;;;;;;2.60;1.10;;;23.50;65.20;;;;;;6065177;23;20384;-78
2023/05/31 12:03:04;;;;;;;2.17;1.20;;;23.80;62.50;;;;;;6066274;23;20468;-79
2023/05/31 12:05:31;;;;;;;1.90;1.40;;;24.00;62.20;;;;;;6065744;23;20686;-78
2023/05/31 12:07:59;;;;;;;3.60;2.15;;;24.10;57.20;;;;;;6091678;23;20385;-78
2023/05/31 12:10:27;;;;;;;2.63;1.55;;;24.10;54.70;;;;;;6065501;23;20387;-77
2023/05/31 12:12:54;;;;;;;1.97;1.40;;;24.30;54.90;;;;;;6066098;23;20413;-78
2023/05/31 12:15:29;;;;;;;2.20;1.85;;;24.50;55.10;;;;;;6066541;23;20758;-78
2023/05/31 12:17:58;;;;;;;1.88;1.40;;;24.60;52.60;;;;;;6065902;23;20517;-78
2023/05/31 12:20:29;;;;;;;3.10;1.40;;;24.80;51.20;;;;;;6090717;23;20894;-78
2023/05/31 12:23:14;;;;;;;1.50;1.30;;;25.00;52.70;;;;;;6091335;23;20385;-78
2023/05/31 12:25:48;;;;;;;1.73;1.15;;;25.20;48.90;;;;;;6065162;23;20444;-78
2023/05/31 12:28:21;;;;;;;1.70;1.13;;;25.20;48.90;;;;;;6066538;23;20760;-79
2023/05/31 12:30:51;;;;;;;1.93;1.40;;;25.10;51.00;;;;;;6090338;23;20373;-78
2023/05/31 12:33:21;;;;;;;2.28;1.50;;;25.20;49.20;;;;;;6066808;23;20381;-79
2023/05/31 12:35:48;;;;;;;2.35;1.35;;;25.20;48.90;;;;;;6064804;23;20806;-79
2023/05/31 12:38:16;;;;;;;2.10;1.47;;;25.20;48.60;;;;;;6066080;23;20424;-79
2023/05/31 12:40:44;;;;;;;1.58;1.48;;;25.30;50.30;;;;;;6065248;23;20377;-78
2023/05/31 12:43:14;;;;;;;1.97;1.33;;;25.60;50.70;;;;;;6066193;23;20377;-78
2023/05/31 12:45:44;;;;;;;2.03;1.30;;;25.60;48.90;;;;;;6064961;23;20470;-79
2023/05/31 12:48:11;;;;;;;2.20;1.37;;;25.60;48.70;;;;;;6065271;23;21006;-79
2023/05/31 12:50:47;;;;;;;1.52;1.00;;;25.70;46.50;;;;;;6065314;23;20389;-78
2023/05/31 12:53:15;;;;;;;1.98;1.20;;;26.00;46.80;;;;;;6091067;23;20419;-79
2023/05/31 12:55:43;;;;;;;1.02;0.80;;;26.10;46.50;;;;;;6064773;23;20382;-78
2023/05/31 12:58:10;;;;;;;1.10;0.90;;;26.20;46.60;;;;;;6065838;23;20385;-78
2023/05/31 13:00:37;;;;;;;2.00;1.10;;;26.40;47.50;;;;;;6064783;23;20385;-78
2023/05/31 13:03:06;;;;;;;2.40;1.00;;;26.30;46.40;;;;;;6065565;23;20725;-78
2023/05/31 13:05:33;;;;;;;1.00;0.88;;;26.30;45.10;;;;;;6064970;23;20389;-79
2023/05/31 13:08:00;;;;;;;1.20;1.08;;;26.30;46.20;;;;;;6065972;23;20405;-78
2023/05/31 13:10:27;;;;;;;2.37;1.30;;;26.30;46.00;;;;;;6090212;23;20717;-80